Time;durP1;ratioP1;P1;durP2;ratioP2;P2;SDS_P1;SDS_P2;PMS_P1;PMS_P2;Temp;Humidity;BMP_temperature;BMP_pressure;BME280_temperature;BME280_humidity;BME280_pressure;Samples;Min_cycle;Max_cycle;Signal;HPM_P1;HPM_P2
2022/11/27 00:03:42;;;;;;;7.90;5.38;;;8.20;69.40;;;;;;20997700;28;20087;-59
2022/11/27 00:13:44;;;;;;;12.43;7.28;;;8.10;69.70;;;;;;20996664;28;20044;-59
2022/11/27 00:23:46;;;;;;;17.48;9.05;;;8.00;69.90;;;;;;20997643;28;20128;-58
2022/11/27 00:33:48;;;;;;;10.52;6.55;;;8.10;69.80;;;;;;20996104;28;20513;-59
2022/11/27 00:43:50;;;;;;;8.75;5.53;;;8.10;69.30;;;;;;20994361;28;20341;-58
2022/11/27 00:53:52;;;;;;;8.93;6.35;;;7.90;69.40;;;;;;20995896;28;20413;-59
2022/11/27 01:03:58;;;;;;;12.45;6.95;;;7.80;70.00;;;;;;20999646;28;20049;-59
2022/11/27 01:14:03;;;;;;;17.08;7.88;;;7.80;70.20;;;;;;20994705;28;20044;-58
2022/11/27 01:24:06;;;;;;;10.50;6.75;;;7.70;70.10;;;;;;20997771;28;20408;-58
2022/11/27 01:34:13;;;;;;;13.82;6.97;;;7.60;70.40;;;;;;21010428;28;20442;-57
2022/11/27 01:44:24;;;;;;;10.77;7.10;;;7.60;70.60;;;;;;21010726;28;20135;-57
2022/11/27 01:54:36;;;;;;;9.57;6.35;;;7.60;70.30;;;;;;21019294;28;20063;-57
2022/11/27 02:04:37;;;;;;;14.40;7.53;;;7.50;70.20;;;;;;21009068;28;20136;-57
2022/11/27 02:14:55;;;;;;;11.65;8.50;;;7.30;71.00;;;;;;21005962;28;20040;-57
2022/11/27 02:25:15;;;;;;;15.50;9.93;;;7.20;71.10;;;;;;21005470;28;20092;-57
2022/11/27 02:35:29;;;;;;;14.73;9.75;;;7.20;71.40;;;;;;21004150;28;20094;-57
2022/11/27 02:45:37;;;;;;;13.77;7.85;;;7.10;71.50;;;;;;21003898;28;20102;-58
2022/11/27 02:55:45;;;;;;;13.73;8.10;;;7.00;71.70;;;;;;21003124;28;20106;-58
2022/11/27 03:05:55;;;;;;;11.48;7.45;;;7.00;71.70;;;;;;21002860;28;20496;-58
2022/11/27 03:16:13;;;;;;;10.90;7.03;;;6.90;72.00;;;;;;21001853;28;20454;-58
2022/11/27 03:26:20;;;;;;;10.70;6.72;;;7.00;71.90;;;;;;21000076;28;20412;-57
2022/11/27 03:36:24;;;;;;;13.27;6.63;;;6.90;71.80;;;;;;20999812;28;20512;-57
2022/11/27 03:46:53;;;;;;;9.55;7.40;;;;;;;;;;20999309;28;20105;-57
2022/11/27 03:57:11;;;;;;;12.07;8.07;;;;;;;;;;20989124;28;20401;-58
2022/11/27 04:07:16;;;;;;;12.88;7.53;;;;;;;;;;20997640;28;20105;-57
2022/11/27 04:17:20;;;;;;;11.25;7.85;;;;;;;;;;20997803;28;20131;-58
2022/11/27 04:27:25;;;;;;;11.43;6.97;;;;;;;;;;20997492;28;20144;-58
2022/11/27 04:37:28;;;;;;;12.43;8.25;;;;;;;;;;20999375;28;20297;-58
2022/11/27 04:47:31;;;;;;;10.52;7.32;;;;;;;;;;20996411;28;20084;-57
2022/11/27 04:57:35;;;;;;;9.27;6.88;;;;;;;;;;20998389;28;20122;-57
2022/11/27 05:07:39;;;;;;;9.85;6.85;;;;;;;;;;21011218;28;20080;-57
2022/11/27 05:17:42;;;;;;;10.57;7.40;;;;;;;;;;21011059;28;20048;-57
2022/11/27 05:28:03;;;;;;;11.57;6.85;;;;;;;;;;21009674;28;20068;-57
2022/11/27 05:38:08;;;;;;;11.90;7.47;;;;;;;;;;21009091;28;20049;-56
2022/11/27 05:48:11;;;;;;;10.82;7.20;;;;;;;;;;21008515;28;20044;-56
2022/11/27 05:58:18;;;;;;;10.27;7.00;;;;;;;;;;21007589;28;20049;-57
2022/11/27 06:08:23;;;;;;;8.13;6.53;;;;;;;;;;21007133;28;20412;-58
2022/11/27 06:18:28;;;;;;;9.88;7.03;;;;;;;;;;21006904;28;20045;-57
2022/11/27 06:28:30;;;;;;;9.63;6.72;;;;;;;;;;21005846;28;20056;-57
2022/11/27 06:38:33;;;;;;;11.27;7.47;;;;;;;;;;21004576;28;20044;-57
2022/11/27 06:48:36;;;;;;;8.55;6.38;;;;;;;;;;21003595;28;20049;-57
2022/11/27 06:58:39;;;;;;;10.85;6.47;;;;;;;;;;21003553;28;20055;-58
2022/11/27 07:08:42;;;;;;;7.75;5.90;;;;;;;;;;21002293;28;20048;-57
2022/11/27 07:18:46;;;;;;;9.95;6.32;;;;;;;;;;21002474;28;20082;-58
2022/11/27 07:28:48;;;;;;;9.32;6.40;;;;;;;;;;21000038;28;20056;-57
2022/11/27 07:38:50;;;;;;;14.18;7.20;;;;;;;;;;21001012;28;20052;-59
2022/11/27 07:48:52;;;;;;;13.57;6.90;;;;;;;;;;20999356;28;20470;-58
2022/11/27 07:58:55;;;;;;;18.17;7.10;;;;;;;;;;20998889;28;20049;-58
2022/11/27 08:08:57;;;;;;;15.70;7.85;;;;;;;;;;20997063;28;20049;-57
2022/11/27 08:19:02;;;;;;;11.80;7.32;;;;;;;;;;20997679;28;20049;-57
2022/11/27 08:29:05;;;;;;;11.75;8.00;;;;;;;;;;20996137;28;20135;-57
2022/11/27 08:39:09;;;;;;;9.93;7.60;;;;;;;;;;20995491;28;20097;-57
2022/11/27 08:49:12;;;;;;;13.10;7.63;;;;;;;;;;20995618;28;20175;-58
2022/11/27 08:59:14;;;;;;;11.30;7.32;;;;;;;;;;20995205;28;20045;-58
2022/11/27 09:09:17;;;;;;;12.88;7.15;;;;;;;;;;20994890;28;20056;-59
2022/11/27 09:19:20;;;;;;;8.60;6.53;;;;;;;;;;20994613;28;20059;-59
2022/11/27 09:29:22;;;;;;;10.65;6.90;;;;;;;;;;20993931;28;20057;-58
2022/11/27 09:39:32;;;;;;;10.05;7.35;;;;;;;;;;20993629;28;20051;-58
2022/11/27 09:49:39;;;;;;;17.23;7.63;;;;;;;;;;21003898;28;20131;-58
2022/11/27 09:59:48;;;;;;;11.23;6.55;;;;;;;;;;21007743;28;20053;-57
2022/11/27 10:09:53;;;;;;;10.23;6.60;;;;;;;;;;21006905;28;20052;-59
2022/11/27 10:20:15;;;;;;;13.90;6.22;;;;;;;;;;21006896;28;20520;-57
2022/11/27 10:30:18;;;;;;;13.10;6.22;;;;;;;;;;21004843;28;20063;-57
2022/11/27 10:40:41;;;;;;;10.00;6.15;;;;;;;;;;21005324;28;20049;-59
2022/11/27 10:50:46;;;;;;;16.13;10.73;;;;;;;;;;21003418;28;20091;-58
2022/11/27 11:00:59;;;;;;;82.25;50.05;;;;;;;;;;21003786;28;20439;-57
2022/11/27 11:11:03;;;;;;;7.03;5.03;;;;;;;;;;21000198;28;20048;-57
2022/11/27 11:21:07;;;;;;;;;;;;;;;;;;21001417;28;20493;-57
2022/11/27 11:31:12;;;;;;;10.55;5.70;;;;;;;;;;21000146;28;19920;-57
2022/11/27 11:41:17;;;;;;;9.77;5.63;;;;;;;;;;21001862;28;20136;-58
2022/11/27 11:51:25;;;;;;;8.75;5.55;;;;;;;;;;20999487;28;20456;-57
2022/11/27 12:01:52;;;;;;;8.02;5.38;;;;;;;;;;20997903;28;20052;-57
2022/11/27 12:12:10;;;;;;;11.38;5.10;;;;;;;;;;20995937;28;20084;-58
2022/11/27 12:22:35;;;;;;;9.93;5.22;;;;;;;;;;20997211;28;20053;-58
2022/11/27 12:32:56;;;;;;;9.93;5.75;;;;;;;;;;20996080;28;20485;-57
2022/11/27 12:43:07;;;;;;;9.18;4.70;;;;;;;;;;20995677;28;20076;-56
2022/11/27 12:53:15;;;;;;;8.55;5.50;;;;;;;;;;20995815;28;20468;-58
2022/11/27 13:03:24;;;;;;;8.82;5.95;;;;;;;;;;20995911;28;20558;-57
2022/11/27 13:13:32;;;;;;;11.23;6.57;;;;;;;;;;20994445;28;20523;-56
2022/11/27 13:23:36;;;;;;;13.30;7.35;;;;;;;;;;21002046;28;20092;-56
2022/11/27 13:33:42;;;;;;;10.40;6.88;;;;;;;;;;21009206;28;20140;-57
2022/11/27 13:43:46;;;;;;;11.13;7.77;;;;;;;;;;21009097;28;20139;-57
2022/11/27 13:53:50;;;;;;;10.82;6.32;;;;;;;;;;21008095;28;20098;-57
2022/11/27 14:03:53;;;;;;;10.23;6.93;;;;;;;;;;21006944;28;20053;-56
2022/11/27 14:13:56;;;;;;;14.18;8.40;;;;;;;;;;21007362;28;20400;-58
2022/11/27 14:24:04;;;;;;;15.13;9.77;;;;;;;;;;21006023;28;20052;-57
2022/11/27 14:34:24;;;;;;;14.13;8.95;;;;;;;;;;21004633;28;20044;-58
2022/11/27 14:44:26;;;;;;;14.82;10.57;;;;;;;;;;21004835;28;20413;-58
2022/11/27 14:54:32;;;;;;;13.85;9.05;;;;;;;;;;21002956;28;20048;-57
2022/11/27 15:04:35;;;;;;;17.58;9.50;;;;;;;;;;21002019;28;20087;-58
2022/11/27 15:14:44;;;;;;;16.87;10.70;;;;;;;;;;21002763;28;20066;-58
2022/11/27 15:24:57;;;;;;;15.60;10.57;;;;;;;;;;21000241;28;20048;-58
2022/11/27 15:35:11;;;;;;;15.52;9.48;;;;;;;;;;20999246;28;20088;-58
2022/11/27 15:45:15;;;;;;;10.30;7.40;;;;;;;;;;20998594;28;20048;-58
2022/11/27 15:55:17;;;;;;;15.60;9.88;;;;;;;;;;20997922;28;20074;-58
2022/11/27 16:05:20;;;;;;;15.70;10.73;;;;;;;;;;20996558;28;20052;-57
2022/11/27 16:15:23;;;;;;;12.67;9.33;;;;;;;;;;20996921;28;20049;-57
2022/11/27 16:25:25;;;;;;;22.15;13.63;;;;;;;;;;20995250;28;20099;-58
2022/11/27 16:35:28;;;;;;;18.80;12.02;;;;;;;;;;20994409;28;20048;-58
2022/11/27 16:45:31;;;;;;;19.42;11.00;;;;;;;;;;20995211;28;20205;-58
2022/11/27 16:55:33;;;;;;;19.38;12.63;;;;;;;;;;20999930;28;20048;-57
2022/11/27 17:05:39;;;;;;;24.30;13.57;;;;;;;;;;21012017;28;20498;-59
2022/11/27 17:15:40;;;;;;;21.45;12.95;;;;;;;;;;21011102;28;20505;-56
2022/11/27 17:25:44;;;;;;;20.73;13.65;;;;;;;;;;21009806;28;20067;-58
2022/11/27 17:35:46;;;;;;;22.60;15.07;;;;;;;;;;21009036;28;20052;-57
2022/11/27 17:45:48;;;;;;;20.77;14.88;;;;;;;;;;21008506;28;20071;-58
2022/11/27 17:55:54;;;;;;;37.67;24.75;;;;;;;;;;21007440;28;20040;-60
2022/11/27 18:05:56;;;;;;;29.83;17.03;;;;;;;;;;21006193;28;20492;-58
2022/11/27 18:16:10;;;;;;;30.85;14.75;;;;;;;;;;21006575;28;20504;-58
2022/11/27 18:26:13;;;;;;;23.95;14.65;;;;;;;;;;21004818;28;20055;-58
2022/11/27 18:36:16;;;;;;;26.85;15.98;;;;;;;;;;21005039;28;20465;-59
2022/11/27 18:46:19;;;;;;;43.85;23.70;;;;;;;;;;21004195;28;20063;-57
2022/11/27 18:56:24;;;;;;;28.05;18.48;;;;;;;;;;21002774;28;20044;-57
2022/11/27 19:06:28;;;;;;;25.70;15.70;;;;;;;;;;21003196;28;20049;-58
2022/11/27 19:16:33;;;;;;;22.98;15.45;;;;;;;;;;21002961;28;20052;-58
2022/11/27 19:26:35;;;;;;;25.88;15.00;;;;;;;;;;21000287;28;20144;-56
2022/11/27 19:36:38;;;;;;;22.70;15.60;;;;;;;;;;21000445;28;20119;-58
2022/11/27 19:46:40;;;;;;;25.25;17.10;;;;;;;;;;20999749;28;20048;-57
2022/11/27 19:56:42;;;;;;;25.40;14.27;;;;;;;;;;20998682;28;20084;-58
2022/11/27 20:06:49;;;;;;;26.33;18.92;;;;;;;;;;20996596;28;20048;-58
2022/11/27 20:16:51;;;;;;;;;;;;;;;;;;20997256;28;20048;-57
2022/11/27 20:26:53;;;;;;;24.00;15.23;;;;;;;;;;20995772;28;19924;-58
2022/11/27 20:36:55;;;;;;;20.05;14.10;;;;;;;;;;20996263;28;20374;-57
2022/11/27 20:46:57;;;;;;;22.58;14.93;;;;;;;;;;20995231;28;20048;-57
2022/11/27 20:57:00;;;;;;;16.52;12.35;;;;;;;;;;20994567;28;20041;-57
2022/11/27 21:07:02;;;;;;;18.98;12.23;;;;;;;;;;20994604;28;20056;-59
2022/11/27 21:17:05;;;;;;;36.97;21.85;;;;;;;;;;20994684;28;20516;-57
2022/11/27 21:27:08;;;;;;;19.13;11.68;;;;;;;;;;20992795;28;20052;-58
2022/11/27 21:37:10;;;;;;;13.70;7.97;;;;;;;;;;20994360;28;20477;-59
2022/11/27 21:47:12;;;;;;;9.73;6.28;;;;;;;;;;21005833;28;20087;-59
2022/11/27 21:57:16;;;;;;;11.43;7.28;;;;;;;;;;21006950;28;20145;-60
2022/11/27 22:07:18;;;;;;;12.50;6.65;;;;;;;;;;21007497;28;20083;-59
2022/11/27 22:17:23;;;;;;;11.45;6.20;;;;;;;;;;21008219;28;20200;-58
2022/11/27 22:27:25;;;;;;;9.73;5.93;;;;;;;;;;21005607;28;20052;-59
2022/11/27 22:37:27;;;;;;;9.30;6.28;;;;;;;;;;21005514;28;20562;-59
2022/11/27 22:47:29;;;;;;;12.27;7.85;;;;;;;;;;21004752;28;20055;-58
2022/11/27 22:57:32;;;;;;;11.05;6.15;;;;;;;;;;21002425;28;20140;-59
2022/11/27 23:07:34;;;;;;;13.43;6.28;;;;;;;;;;21003249;28;20070;-59
2022/11/27 23:17:37;;;;;;;11.93;6.85;;;;;;;;;;21002332;28;20045;-59
2022/11/27 23:27:39;;;;;;;15.63;7.90;;;;;;;;;;21001208;28;20492;-58
2022/11/27 23:37:42;;;;;;;8.75;5.10;;;;;;;;;;21000059;28;20090;-58
2022/11/27 23:47:49;;;;;;;9.35;5.07;;;;;;;;;;20999430;28;20444;-59
2022/11/27 23:57:51;;;;;;;7.03;3.47;;;;;;;;;;20999354;28;20097;-58
